createdAt,value
2022-10-17T00:01:06.137Z,101831.94
2022-10-17T00:03:34.419Z,101829.25
2022-10-17T00:06:07.057Z,101842.44
2022-10-17T00:08:35.165Z,101821.22
2022-10-17T00:11:06.265Z,101831.97
2022-10-17T00:13:35.148Z,101830.09
2022-10-17T00:16:03.295Z,101830.88
2022-10-17T00:18:33.793Z,101826.38
2022-10-17T00:21:01.862Z,101811.31
2022-10-17T00:23:30.574Z,101820.72
2022-10-17T00:26:02.789Z,101818.81
2022-10-17T00:28:31.065Z,101812.06
2022-10-17T00:31:00.203Z,101809.88
2022-10-17T00:33:29.078Z,101811.75
2022-10-17T00:36:06.393Z,101801.78
2022-10-17T00:38:34.818Z,101809.88
2022-10-17T00:41:03.193Z,101800.72
2022-10-17T00:43:33.152Z,101812.78
2022-10-17T00:46:01.217Z,101802.31
2022-10-17T00:48:29.521Z,101811.41
2022-10-17T00:50:57.778Z,101806.03
2022-10-17T00:53:27.362Z,101802.81
2022-10-17T00:55:55.808Z,101802.84
2022-10-17T00:58:24.059Z,101802.31
2022-10-17T01:00:52.145Z,101798.88
2022-10-17T01:03:20.283Z,101801.84
2022-10-17T01:05:48.708Z,101802.06
2022-10-17T01:08:17.049Z,101793.22
2022-10-17T01:10:58.688Z,101800.72
2022-10-17T01:13:31.709Z,101800.72
2022-10-17T01:16:11.311Z,101806.38
2022-10-17T01:18:52.609Z,101804.53
2022-10-17T01:21:41.422Z,101803.97
2022-10-17T01:24:38.395Z,101800.50
2022-10-17T01:27:30.749Z,101805.81
2022-10-17T01:30:33.593Z,101802.63
2022-10-17T01:33:10.597Z,101799.44
2022-10-17T01:35:43.170Z,101799.97
2022-10-17T01:38:15.990Z,101804.53
2022-10-17T01:40:48.982Z,101805.06
2022-10-17T01:43:22.733Z,101803.75
2022-10-17T01:45:54.808Z,101807.50
2022-10-17T01:48:28.194Z,101824.44
2022-10-17T01:51:02.795Z,101819.84
2022-10-17T01:53:35.108Z,101817.50
2022-10-17T01:56:07.768Z,101819.06
2022-10-17T01:58:42.817Z,101832.25
2022-10-17T02:01:13.577Z,101823.88
2022-10-17T02:03:45.091Z,101823.31
2022-10-17T02:06:13.418Z,101828.41
2022-10-17T02:08:43.380Z,101828.19
2022-10-17T02:11:16.539Z,101831.13
2022-10-17T02:14:07.771Z,101823.91
2022-10-17T02:16:40.195Z,101822.03
2022-10-17T02:19:32.093Z,101825.50
2022-10-17T02:22:13.526Z,101837.28
2022-10-17T02:24:49.133Z,101839.44
2022-10-17T02:27:26.409Z,101836.50
2022-10-17T02:30:02.706Z,101848.78
2022-10-17T02:32:38.601Z,101838.31
2022-10-17T02:35:12.430Z,101846.34
2022-10-17T02:37:43.264Z,101844.19
2022-10-17T02:40:14.839Z,101842.59
2022-10-17T02:42:46.265Z,101846.84
2022-10-17T02:45:15.979Z,101849.53
2022-10-17T02:47:52.556Z,101850.03
2022-10-17T02:50:25.734Z,101854.09
2022-10-17T02:52:57.912Z,101859.19
2022-10-17T02:55:31.518Z,101859.19
2022-10-17T02:58:04.007Z,101859.44
2022-10-17T03:00:33.937Z,101864.84
2022-10-17T03:03:02.224Z,101857.81
2022-10-17T03:05:31.631Z,101869.84
2022-10-17T03:07:59.728Z,101866.03
2022-10-17T03:10:27.891Z,101871.38
2022-10-17T03:12:55.957Z,101861.16
2022-10-17T03:15:24.015Z,101863.47
2022-10-17T03:17:52.120Z,101859.44
2022-10-17T03:20:20.344Z,101860.50
2022-10-17T03:22:49.843Z,101870.47
2022-10-17T03:25:17.929Z,101872.63
2022-10-17T03:27:46.197Z,101865.94
2022-10-17T03:30:14.475Z,101870.75
2022-10-17T03:32:42.511Z,101855.78
2022-10-17T03:35:14.841Z,101849.91
2022-10-17T03:37:43.358Z,101850.25
2022-10-17T03:40:13.121Z,101853.25
2022-10-17T03:42:41.212Z,101845.22
2022-10-17T03:45:09.874Z,101864.84
2022-10-17T03:47:38.155Z,101846.34
2022-10-17T03:50:07.570Z,101842.63
2022-10-17T03:52:35.613Z,101843.97
2022-10-17T03:55:03.661Z,101858.25
2022-10-17T03:57:33.154Z,101861.50
2022-10-17T04:00:01.396Z,101851.34
2022-10-17T04:02:29.422Z,101864.28
2022-10-17T04:04:57.564Z,101855.13
2022-10-17T04:09:54.768Z,101871.28
2022-10-17T04:12:22.859Z,101869.91
2022-10-17T04:14:52.453Z,101893.25
2022-10-17T04:17:20.504Z,101891.59
2022-10-17T04:19:50.432Z,101890.53
2022-10-17T04:22:18.523Z,101904.81
2022-10-17T04:24:46.651Z,101902.41
2022-10-17T04:27:14.961Z,101907.78
2022-10-17T04:29:44.047Z,101904.03
2022-10-17T04:32:13.459Z,101911.81
2022-10-17T04:34:41.743Z,101898.41
2022-10-17T04:37:09.801Z,101902.19
2022-10-17T04:39:37.889Z,101911.28
2022-10-17T04:42:05.953Z,101919.31
2022-10-17T04:44:35.609Z,101921.72
2022-10-17T04:47:03.740Z,101915.25
2022-10-17T04:49:33.188Z,101929.47
2022-10-17T04:52:01.316Z,101924.34
2022-10-17T04:54:29.391Z,101934.53
2022-10-17T04:56:57.476Z,101937.47
2022-10-17T04:59:25.874Z,101933.97
2022-10-17T05:01:54.145Z,101939.59
2022-10-17T05:04:24.717Z,101944.69
2022-10-17T05:06:54.690Z,101940.91
2022-10-17T05:09:22.723Z,101942.50
2022-10-17T05:11:50.937Z,101948.63
2022-10-17T05:14:18.999Z,101948.88
2022-10-17T05:16:47.135Z,101963.88
2022-10-17T05:19:15.541Z,101963.59
2022-10-17T05:21:43.652Z,101962.25
2022-10-17T05:24:15.626Z,101961.94
2022-10-17T05:26:43.840Z,101961.94
2022-10-17T05:29:12.191Z,101953.59
2022-10-17T05:31:40.315Z,101965.69
2022-10-17T05:34:11.542Z,101983.38
2022-10-17T05:36:42.032Z,101983.66
2022-10-17T05:39:10.200Z,101988.97
2022-10-17T05:41:39.675Z,101981.16
2022-10-17T05:44:07.787Z,101991.63
2022-10-17T05:46:35.938Z,101981.63
2022-10-17T05:49:14.684Z,101993.19
2022-10-17T05:51:52.153Z,101994.72
2022-10-17T05:54:20.310Z,101998.16
2022-10-17T05:56:53.081Z,102008.25
2022-10-17T05:59:21.312Z,102012.50
2022-10-17T06:01:49.531Z,102019.09
2022-10-17T06:04:17.916Z,102011.63
2022-10-17T06:06:46.136Z,102016.34
2022-10-17T06:09:14.345Z,102021.38
2022-10-17T06:11:42.359Z,102012.81
2022-10-17T06:14:11.934Z,102027.53
2022-10-17T06:16:40.007Z,102019.56
2022-10-17T06:19:08.103Z,102028.16
2022-10-17T06:21:37.898Z,102032.16
2022-10-17T06:24:06.212Z,102021.19
2022-10-17T06:26:34.854Z,102023.88
2022-10-17T06:29:03.086Z,102038.91
2022-10-17T06:31:32.623Z,102032.22
2022-10-17T06:34:00.689Z,102050.81
2022-10-17T06:36:30.720Z,102048.19
2022-10-17T06:38:58.794Z,102039.88
2022-10-17T06:41:26.899Z,102037.84
2022-10-17T06:43:55.157Z,102043.91
2022-10-17T06:46:25.614Z,102059.34
2022-10-17T06:48:55.165Z,102052.56
2022-10-17T06:51:23.244Z,102061.22
2022-10-17T06:53:51.536Z,102071.91
2022-10-17T06:56:19.591Z,102067.59
2022-10-17T06:58:49.554Z,102071.09
2022-10-17T07:01:17.641Z,102068.53
2022-10-17T07:03:50.113Z,102070.72
2022-10-17T07:06:19.756Z,102083.06
2022-10-17T07:08:51.665Z,102052.03
2022-10-17T07:11:22.721Z,102079.31
2022-10-17T07:13:51.289Z,102072.22
2022-10-17T07:16:19.494Z,102073.44
2022-10-17T07:18:50.460Z,102080.66
2022-10-17T07:21:20.075Z,102077.06
2022-10-17T07:23:48.130Z,102083.38
2022-10-17T07:26:18.419Z,102085.97
2022-10-17T07:28:48.791Z,102095.94
2022-10-17T07:31:19.485Z,102086.50
2022-10-17T07:33:47.896Z,102093.16
2022-10-17T07:36:16.869Z,102095.06
2022-10-17T07:38:46.360Z,102086.44
2022-10-17T07:41:19.216Z,102095.16
2022-10-17T07:43:49.985Z,102096.03
2022-10-17T07:46:19.214Z,102074.88
2022-10-17T07:48:47.320Z,102079.69
2022-10-17T07:51:15.386Z,102084.50
2022-10-17T07:53:47.962Z,102073.31
2022-10-17T07:56:18.862Z,102097.56
2022-10-17T07:58:48.400Z,102078.56
2022-10-17T08:01:17.792Z,102077.84
2022-10-17T08:03:48.613Z,102099.78
2022-10-17T08:06:16.840Z,102073.88
2022-10-17T08:08:45.618Z,102095.88
2022-10-17T08:11:16.038Z,102082.84
2022-10-17T08:13:45.628Z,102080.03
2022-10-17T08:16:14.538Z,102086.88
2022-10-17T08:18:44.253Z,102083.03
2022-10-17T08:21:14.549Z,102081.31
2022-10-17T08:23:42.700Z,102074.97
2022-10-17T08:26:13.633Z,102091.22
2022-10-17T08:28:42.514Z,102087.31
2022-10-17T08:31:14.008Z,102094.06
2022-10-17T08:33:42.786Z,102085.81
2022-10-17T08:36:13.606Z,102082.88
2022-10-17T08:38:43.717Z,102089.44
2022-10-17T08:41:19.012Z,102089.88
2022-10-17T08:44:04.027Z,102075.97
2022-10-17T08:46:36.901Z,102091.63
2022-10-17T08:49:12.262Z,102081.94
2022-10-17T08:51:45.951Z,102092.75
2022-10-17T08:54:19.135Z,102087.03
2022-10-17T08:56:51.334Z,102092.47
2022-10-17T08:59:21.611Z,102094.94
2022-10-17T09:01:56.347Z,102099.44
2022-10-17T09:04:48.896Z,102093.50
2022-10-17T09:07:23.627Z,102099.00
2022-10-17T09:09:58.986Z,102108.38
2022-10-17T09:12:35.770Z,102092.38
2022-10-17T09:15:32.483Z,102102.81
2022-10-17T09:18:08.950Z,102101.41
2022-10-17T09:20:41.663Z,102103.28
2022-10-17T09:23:15.015Z,102113.16
2022-10-17T09:25:45.308Z,102091.03
2022-10-17T09:28:19.540Z,102102.22
2022-10-17T09:30:51.716Z,102108.69
2022-10-17T09:33:34.630Z,102113.84
2022-10-17T09:36:05.797Z,102090.97
2022-10-17T09:38:40.893Z,102102.69
2022-10-17T09:41:42.942Z,102103.47
2022-10-17T09:44:25.252Z,102090.41
2022-10-17T09:47:10.140Z,102090.91
2022-10-17T09:49:41.857Z,102096.81
2022-10-17T09:52:15.719Z,102082.56
2022-10-17T09:54:46.791Z,102085.28
2022-10-17T09:57:16.472Z,102084.09
2022-10-17T09:59:46.478Z,102079.88
2022-10-17T10:02:21.172Z,102080.91
2022-10-17T10:05:07.059Z,102074.22
2022-10-17T10:07:38.529Z,102079.84
2022-10-17T10:10:24.162Z,102080.00
2022-10-17T10:13:05.658Z,102075.63
2022-10-17T10:15:37.841Z,102086.84
2022-10-17T10:21:11.173Z,102079.53
2022-10-17T10:23:41.271Z,102074.13
2022-10-17T10:26:22.957Z,102076.78
2022-10-17T10:29:01.595Z,102070.22
2022-10-17T10:31:33.490Z,102072.84
2022-10-17T10:34:04.291Z,102063.88
2022-10-17T10:36:48.388Z,102065.56
2022-10-17T10:39:36.111Z,102071.63
2022-10-17T10:42:08.048Z,102065.44
2022-10-17T10:44:40.749Z,102064.66
2022-10-17T10:47:15.869Z,102070.63
2022-10-17T10:49:44.513Z,102067.72
2022-10-17T10:52:24.024Z,102071.59
2022-10-17T10:54:59.250Z,102059.69
2022-10-17T10:57:32.202Z,102070.59
2022-10-17T11:00:08.287Z,102062.63
2022-10-17T11:02:41.644Z,102057.59
2022-10-17T11:05:16.838Z,102063.19
2022-10-17T11:07:52.493Z,102057.63
2022-10-17T11:10:26.644Z,102054.84
2022-10-17T11:13:01.422Z,102059.28
2022-10-17T11:15:37.059Z,102054.84
2022-10-17T11:18:07.984Z,102050.31
2022-10-17T11:20:45.939Z,102061.38
2022-10-17T11:23:21.727Z,102069.50
2022-10-17T11:25:52.303Z,102050.41
2022-10-17T11:28:22.700Z,102039.13
2022-10-17T11:30:56.559Z,102049.38
2022-10-17T11:33:30.976Z,102044.41
2022-10-17T11:36:04.739Z,102048.13
2022-10-17T11:38:43.157Z,102037.28
2022-10-17T11:41:16.398Z,102037.94
2022-10-17T11:43:51.422Z,102042.38
2022-10-17T11:46:24.469Z,102042.34
2022-10-17T11:49:15.042Z,102038.06
2022-10-17T11:52:05.939Z,102045.31
2022-10-17T11:54:40.498Z,102046.56
2022-10-17T11:57:32.746Z,102039.78
2022-10-17T12:00:20.551Z,102041.22
2022-10-17T12:02:59.066Z,102038.88
2022-10-17T12:05:34.889Z,102050.00
2022-10-17T12:08:10.843Z,102044.22
2022-10-17T12:11:01.942Z,102031.75
2022-10-17T12:13:51.976Z,102047.56
2022-10-17T12:16:46.860Z,102042.75
2022-10-17T12:19:28.595Z,102041.00
2022-10-17T12:21:59.159Z,102052.91
2022-10-17T12:24:42.318Z,102041.44
2022-10-17T12:27:48.688Z,102045.00
2022-10-17T12:30:21.445Z,102045.34
2022-10-17T12:33:21.978Z,102074.97
2022-10-17T12:35:51.903Z,102053.94
2022-10-17T12:38:25.927Z,102048.03
2022-10-17T12:41:04.605Z,102050.00
2022-10-17T12:43:53.795Z,102042.94
2022-10-17T12:46:48.440Z,102046.38
2022-10-17T12:49:25.590Z,102054.69
2022-10-17T12:52:22.163Z,102046.81
2022-10-17T12:55:00.487Z,102049.81
2022-10-17T12:57:40.743Z,102058.31
2022-10-17T13:00:18.395Z,102041.16
2022-10-17T13:02:49.518Z,102049.13
2022-10-17T13:05:33.748Z,102040.09
2022-10-17T13:08:06.461Z,102047.28
2022-10-17T13:10:40.725Z,102042.78
2022-10-17T13:13:18.222Z,102043.09
2022-10-17T13:15:50.092Z,102048.78
2022-10-17T13:18:25.087Z,102048.78
2022-10-17T13:20:58.695Z,102042.38
2022-10-17T13:23:30.365Z,102041.13
2022-10-17T13:26:20.491Z,102045.47
2022-10-17T13:29:02.869Z,102043.28
2022-10-17T13:31:33.153Z,102062.72
2022-10-17T13:34:04.499Z,102061.84
2022-10-17T13:36:33.963Z,102053.41
2022-10-17T13:39:12.377Z,102057.59
2022-10-17T13:41:43.555Z,102066.94
2022-10-17T13:44:16.746Z,102056.84
2022-10-17T13:46:45.806Z,102060.75
2022-10-17T13:49:23.188Z,102065.66
2022-10-17T13:51:55.368Z,102072.31
2022-10-17T13:54:40.352Z,102057.84
2022-10-17T13:57:19.897Z,102060.09
2022-10-17T13:59:50.565Z,102068.88
2022-10-17T14:02:21.567Z,102061.47
2022-10-17T14:05:18.302Z,102070.81
2022-10-17T14:08:10.717Z,102077.91
2022-10-17T14:10:41.268Z,102066.13
2022-10-17T14:13:21.124Z,102072.69
2022-10-17T14:15:49.577Z,102067.50
2022-10-17T14:18:22.510Z,102073.41
2022-10-17T14:23:43.864Z,102088.41
2022-10-17T14:26:15.427Z,102084.09
2022-10-17T14:28:46.121Z,102084.00
2022-10-17T14:31:36.217Z,102085.13
2022-10-17T14:34:06.660Z,102086.63
2022-10-17T14:36:42.125Z,102093.91
2022-10-17T14:39:21.565Z,102098.69
2022-10-17T14:41:50.704Z,102093.00
2022-10-17T14:44:22.831Z,102084.25
2022-10-17T14:46:55.345Z,102094.06
2022-10-17T14:49:34.890Z,102090.34
2022-10-17T14:52:28.587Z,102102.63
2022-10-17T14:54:57.922Z,102112.72
2022-10-17T14:57:29.556Z,102106.00
2022-10-17T14:59:58.302Z,102106.38
2022-10-17T15:02:27.488Z,102103.97
2022-10-17T15:04:55.841Z,102108.28
2022-10-17T15:07:26.018Z,102107.84
2022-10-17T15:09:54.926Z,102108.09
2022-10-17T15:12:25.917Z,102114.63
2022-10-17T15:14:54.857Z,102121.69
2022-10-17T15:17:27.027Z,102110.84
2022-10-17T15:19:55.578Z,102119.88
2022-10-17T15:22:25.508Z,102113.19
2022-10-17T15:24:53.665Z,102123.25
2022-10-17T15:27:23.599Z,102132.72
2022-10-17T15:29:53.164Z,102124.91
2022-10-17T15:32:21.409Z,102125.56
2022-10-17T15:34:49.477Z,102122.72
2022-10-17T15:37:22.352Z,102132.41
2022-10-17T15:39:54.848Z,102132.53
2022-10-17T15:42:24.673Z,102132.59
2022-10-17T15:44:52.744Z,102137.47
2022-10-17T15:47:26.732Z,102139.38
2022-10-17T15:49:55.839Z,102145.94
2022-10-17T15:52:25.492Z,102147.22
2022-10-17T15:54:57.312Z,102144.31
2022-10-17T15:57:29.884Z,102149.53
2022-10-17T16:00:00.841Z,102154.69
2022-10-17T16:02:29.107Z,102156.88
2022-10-17T16:04:57.232Z,102162.50
2022-10-17T16:07:25.256Z,102159.91
2022-10-17T16:09:54.705Z,102160.41
2022-10-17T16:12:29.121Z,102161.81
2022-10-17T16:14:57.441Z,102157.81
2022-10-17T16:17:25.598Z,102157.31
2022-10-17T16:19:53.733Z,102159.53
2022-10-17T16:22:28.122Z,102160.94
2022-10-17T16:24:59.490Z,102162.00
2022-10-17T16:27:27.951Z,102160.72
2022-10-17T16:29:55.973Z,102164.41
2022-10-17T16:32:24.190Z,102169.84
2022-10-17T16:34:52.310Z,102163.63
2022-10-17T16:37:20.376Z,102174.19
2022-10-17T16:39:52.538Z,102169.66
2022-10-17T16:42:22.651Z,102178.53
2022-10-17T16:44:51.413Z,102187.97
2022-10-17T16:47:20.654Z,102184.56
2022-10-17T16:49:48.858Z,102188.31
2022-10-17T16:52:17.160Z,102182.94
2022-10-17T16:54:45.433Z,102181.94
2022-10-17T16:57:13.476Z,102179.28
2022-10-17T16:59:43.021Z,102181.47
2022-10-17T17:02:12.136Z,102178.22
2022-10-17T17:04:40.394Z,102175.53
2022-10-17T17:07:08.474Z,102178.56
2022-10-17T17:09:36.579Z,102184.81
2022-10-17T17:12:04.783Z,102181.28
2022-10-17T17:14:33.175Z,102191.56
2022-10-17T17:17:02.769Z,102188.88
2022-10-17T17:19:30.904Z,102184.88
2022-10-17T17:21:58.992Z,102193.25
2022-10-17T17:24:27.029Z,102195.16
2022-10-17T17:26:57.421Z,102199.78
2022-10-17T17:29:26.459Z,102198.69
2022-10-17T17:31:54.626Z,102202.13
2022-10-17T17:34:24.092Z,102201.84
2022-10-17T17:36:52.186Z,102207.00
2022-10-17T17:39:20.333Z,102201.03
2022-10-17T17:41:48.468Z,102197.81
2022-10-17T17:44:17.153Z,102204.75
2022-10-17T17:46:46.064Z,102198.31
2022-10-17T17:49:14.418Z,102196.94
2022-10-17T17:51:46.612Z,102201.56
2022-10-17T17:54:15.316Z,102199.78
2022-10-17T17:56:43.678Z,102201.22
2022-10-17T17:59:14.119Z,102203.41
2022-10-17T18:01:42.525Z,102207.16
2022-10-17T18:04:11.171Z,102207.47
2022-10-17T18:06:40.352Z,102204.53
2022-10-17T18:09:10.744Z,102210.69
2022-10-17T18:11:39.164Z,102213.66
2022-10-17T18:14:09.017Z,102215.59
2022-10-17T18:16:38.271Z,102210.72
2022-10-17T18:19:09.024Z,102208.31
2022-10-17T18:21:37.803Z,102205.09
2022-10-17T18:24:06.958Z,102213.72
2022-10-17T18:26:36.756Z,102215.63
2022-10-17T18:29:05.702Z,102211.28
2022-10-17T18:31:36.184Z,102208.34
2022-10-17T18:34:07.032Z,102215.59
2022-10-17T18:36:37.285Z,102210.22
2022-10-17T18:39:06.369Z,102208.09
2022-10-17T18:41:34.688Z,102219.91
2022-10-17T18:44:04.629Z,102218.03
2022-10-17T18:46:40.617Z,102218.56
2022-10-17T18:49:11.395Z,102216.97
2022-10-17T18:51:39.859Z,102223.16
2022-10-17T18:54:12.478Z,102224.78
2022-10-17T18:56:40.677Z,102227.72
2022-10-17T18:59:10.383Z,102231.72
2022-10-17T19:01:38.782Z,102230.13
2022-10-17T19:04:06.947Z,102232.03
2022-10-17T19:06:35.114Z,102230.94
2022-10-17T19:09:05.248Z,102233.91
2022-10-17T19:11:35.104Z,102228.78
2022-10-17T19:14:05.902Z,102236.31
2022-10-17T19:16:38.761Z,102234.16
2022-10-17T19:19:09.131Z,102236.31
2022-10-17T19:21:37.247Z,102226.66
2022-10-17T19:24:08.000Z,102229.31
2022-10-17T19:26:37.807Z,102227.47
2022-10-17T19:29:07.088Z,102241.69
2022-10-17T19:31:37.300Z,102233.91
2022-10-17T19:34:05.525Z,102232.28
2022-10-17T19:36:35.673Z,102235.22
2022-10-17T19:39:06.261Z,102235.25
2022-10-17T19:41:36.073Z,102236.03
2022-10-17T19:44:06.472Z,102237.66
2022-10-17T19:46:36.295Z,102232.28
2022-10-17T19:49:05.502Z,102234.19
2022-10-17T19:51:34.091Z,102231.22
2022-10-17T19:54:02.789Z,102228.50
2022-10-17T19:56:33.938Z,102229.84
2022-10-17T19:59:02.615Z,102225.56
2022-10-17T20:01:33.410Z,102221.00
2022-10-17T20:04:03.475Z,102219.13
2022-10-17T20:06:31.840Z,102222.88
2022-10-17T20:09:00.237Z,102216.16
2022-10-17T20:11:30.049Z,102220.72
2022-10-17T20:13:58.923Z,102218.31
2022-10-17T20:16:29.662Z,102221.78
2022-10-17T20:19:08.379Z,102221.00
2022-10-17T20:21:39.492Z,102219.66
2022-10-17T20:24:10.098Z,102208.38
2022-10-17T20:26:39.801Z,102210.00
2022-10-17T20:29:11.223Z,102204.59
2022-10-17T20:31:40.622Z,102207.81
2022-10-17T20:34:13.265Z,102202.72
2022-10-17T20:36:41.521Z,102206.22
2022-10-17T20:39:11.275Z,102199.53
2022-10-17T20:41:39.623Z,102199.25
2022-10-17T20:44:08.030Z,102203.28
2022-10-17T20:46:41.577Z,102201.13
2022-10-17T20:49:16.352Z,102202.72
2022-10-17T20:51:44.970Z,102207.03
2022-10-17T20:54:13.511Z,102196.03
2022-10-17T20:56:41.626Z,102190.13
2022-10-17T20:59:13.788Z,102199.78
2022-10-17T21:01:42.271Z,102190.66
2022-10-17T21:04:40.706Z,102193.06
2022-10-17T21:07:00.412Z,102193.88
2022-10-17T21:09:28.603Z,102188.22
2022-10-17T21:11:56.962Z,102188.22
2022-10-17T21:14:26.171Z,102177.47
2022-10-17T21:16:54.585Z,102185.81
2022-10-17T21:19:23.005Z,102179.13
2022-10-17T21:21:51.866Z,102171.84
2022-10-17T21:24:21.401Z,102172.38
2022-10-17T21:26:55.584Z,102170.50
2022-10-17T21:29:24.775Z,102160.59
2022-10-17T21:31:53.736Z,102174.78
2022-10-17T21:34:24.670Z,102165.41
2022-10-17T21:36:53.657Z,102163.53
2022-10-17T21:39:24.894Z,102163.53
2022-10-17T21:41:53.486Z,102156.81
2022-10-17T21:44:25.110Z,102162.72
2022-10-17T21:46:54.132Z,102163.00
2022-10-17T21:49:24.283Z,102166.47
2022-10-17T21:51:53.329Z,102169.44
2022-10-17T21:54:24.245Z,102163.78
2022-10-17T21:56:52.736Z,102171.03
2022-10-17T21:59:21.031Z,102169.44
2022-10-17T22:01:49.194Z,102175.88
2022-10-17T22:04:19.405Z,102173.72
2022-10-17T22:06:51.243Z,102169.44
2022-10-17T22:09:24.589Z,102172.91
2022-10-17T22:11:55.843Z,102171.31
2022-10-17T22:14:25.724Z,102166.50
2022-10-17T22:16:53.931Z,102171.31
2022-10-17T22:19:24.549Z,102160.56
2022-10-17T22:21:52.810Z,102171.56
2022-10-17T22:24:23.535Z,102165.94
2022-10-17T22:26:51.943Z,102158.44
2022-10-17T22:29:20.297Z,102157.88
2022-10-17T22:31:48.876Z,102161.09
2022-10-17T22:34:18.454Z,102159.25
2022-10-17T22:36:47.834Z,102159.75
2022-10-17T22:39:16.231Z,102167.56
2022-10-17T22:41:45.851Z,102169.69
2022-10-17T22:44:14.135Z,102170.78
2022-10-17T22:46:42.316Z,102175.63
2022-10-17T22:49:10.542Z,102170.78
2022-10-17T22:51:38.770Z,102175.59
2022-10-17T22:54:06.978Z,102181.25
2022-10-17T22:56:35.084Z,102175.63
2022-10-17T22:59:04.919Z,102182.06
2022-10-17T23:01:33.225Z,102170.78
2022-10-17T23:04:01.480Z,102179.38
2022-10-17T23:06:29.683Z,102179.88
2022-10-17T23:08:57.827Z,102178.81
2022-10-17T23:11:26.125Z,102167.28
2022-10-17T23:13:54.217Z,102172.91
2022-10-17T23:16:23.720Z,102164.06
2022-10-17T23:18:51.838Z,102169.16
2022-10-17T23:21:20.053Z,102168.09
2022-10-17T23:23:48.137Z,102163.81
2022-10-17T23:26:16.408Z,102158.44
2022-10-17T23:28:44.793Z,102158.94
2022-10-17T23:31:16.686Z,102163.53
2022-10-17T23:33:47.531Z,102158.41
2022-10-17T23:36:17.441Z,102159.50
2022-10-17T23:38:46.941Z,102153.84
2022-10-17T23:41:15.988Z,102148.22
2022-10-17T23:43:44.709Z,102150.38
2022-10-17T23:46:13.962Z,102147.69
2022-10-17T23:48:42.440Z,102141.25
2022-10-17T23:51:12.671Z,102146.06
2022-10-17T23:53:41.742Z,102136.41
2022-10-17T23:56:11.489Z,102155.47
2022-10-17T23:58:40.154Z,102140.44
